Time;durP1;ratioP1;P1;durP2;ratioP2;P2;SDS_P1;SDS_P2;PMS_P1;PMS_P2;Temp;Humidity;BMP_temperature;BMP_pressure;BME280_temperature;BME280_humidity;BME280_pressure;Samples;Min_cycle;Max_cycle;Signal;HPM_P1;HPM_P2
2022/11/01 00:01:57;;;;;;;49.37;34.43;;;;;;;;;;5040946;28;20584;-75
2022/11/01 00:04:23;;;;;;;52.40;35.67;;;;;;;;;;5058099;28;20222;-75
2022/11/01 00:06:50;;;;;;;53.37;34.93;;;;;;;;;;5066305;28;20218;-74
2022/11/01 00:09:16;;;;;;;50.93;34.43;;;;;;;;;;5060508;28;20599;-75
2022/11/01 00:11:41;;;;;;;53.23;35.23;;;;;;;;;;5043976;28;20695;-75
2022/11/01 00:14:11;;;;;;;52.63;35.20;;;;;;;;;;5058712;28;20723;-74
2022/11/01 00:16:39;;;;;;;53.47;34.10;;;;;;;;;;5052744;28;20650;-75
2022/11/01 00:19:09;;;;;;;49.33;34.60;;;;;;;;;;5047736;28;20230;-74
2022/11/01 00:21:37;;;;;;;51.87;34.37;;;;;;;;;;5072398;28;20234;-74
2022/11/01 00:24:02;;;;;;;49.63;36.03;;;;;;;;;;5062351;28;20273;-75
2022/11/01 00:26:28;;;;;;;53.43;35.93;;;;;;;;;;5063701;28;20215;-75
2022/11/01 00:28:53;;;;;;;55.90;37.13;;;;;;;;;;5085234;28;20739;-75
2022/11/01 00:31:19;;;;;;;67.47;39.67;;;;;;;;;;5087636;28;20221;-75
2022/11/01 00:33:49;;;;;;;58.87;38.20;;;;;;;;;;5053282;28;20225;-75
2022/11/01 00:36:15;;;;;;;60.70;40.00;;;;;;;;;;5048038;28;20582;-75
2022/11/01 00:38:40;;;;;;;71.37;41.63;;;;;;;;;;5080400;28;20226;-75
2022/11/01 00:41:08;;;;;;;67.83;41.70;;;;;;;;;;5048656;28;20240;-74
2022/11/01 00:43:34;;;;;;;72.40;42.00;;;;;;;;;;5071892;28;20226;-75
2022/11/01 00:46:00;;;;;;;65.20;42.87;;;;;;;;;;5047155;28;20215;-74
2022/11/01 00:48:25;;;;;;;73.40;44.97;;;;;;;;;;5064252;28;20313;-75
2022/11/01 00:50:51;;;;;;;70.47;45.00;;;;;;;;;;5044020;28;20269;-75
2022/11/01 00:53:17;;;;;;;73.37;44.07;;;;;;;;;;5078444;28;20325;-75
2022/11/01 00:55:43;;;;;;;69.50;45.15;;;;;;;;;;5085358;28;20766;-75
2022/11/01 00:58:08;;;;;;;70.10;47.07;;;;;;;;;;5061478;28;20222;-75
2022/11/01 01:00:34;;;;;;;74.57;47.03;;;;;;;;;;5061640;28;20226;-76
2022/11/01 01:03:05;;;;;;;81.83;47.23;;;;;;;;;;5047629;28;20226;-74
2022/11/01 01:05:34;;;;;;;74.78;47.00;;;;;;;;;;5051692;28;20360;-75
2022/11/01 01:08:02;;;;;;;81.30;48.63;;;;;;;;;;5048045;28;20214;-74
2022/11/01 01:10:27;;;;;;;72.53;48.77;;;;;;;;;;5045212;28;20221;-75
2022/11/01 01:12:53;;;;;;;74.65;47.92;;;;;;;;;;5048160;28;20230;-74
2022/11/01 01:15:20;;;;;;;74.67;49.90;;;;;;;;;;5058962;28;20229;-74
2022/11/01 01:17:48;;;;;;;67.13;46.80;;;;;;;;;;5063469;28;20210;-74
2022/11/01 01:20:14;;;;;;;73.65;48.38;;;;;;;;;;5045452;28;20230;-74
2022/11/01 01:22:44;;;;;;;73.70;49.07;;;;;;;;;;5069171;28;20221;-74
2022/11/01 01:25:12;;;;;;;74.43;48.37;;;;;;;;;;5069551;28;20766;-76
2022/11/01 01:27:38;;;;;;;73.23;47.70;;;;;;;;;;5066933;28;20221;-75
2022/11/01 01:30:11;;;;;;;78.20;50.03;;;;;;;;;;5080466;28;20717;-73
2022/11/01 01:32:39;;;;;;;75.43;47.97;;;;;;;;;;5064399;28;20707;-74
2022/11/01 01:35:05;;;;;;;61.28;46.47;;;;;;;;;;5052013;28;20226;-74
2022/11/01 01:37:30;;;;;;;64.80;46.43;;;;;;;;;;5065499;28;20225;-75
2022/11/01 01:39:56;;;;;;;65.17;46.33;;;;;;;;;;5044229;28;20849;-75
2022/11/01 01:42:32;;;;;;;68.90;46.27;;;;;;;;;;5060813;28;20227;-74
2022/11/01 01:45:03;;;;;;;62.73;44.87;;;;;;;;;;5054436;28;20293;-75
2022/11/01 01:47:39;;;;;;;61.20;45.00;;;;;;;;;;5104054;28;20222;-75
2022/11/01 01:50:06;;;;;;;64.23;45.30;;;;;;;;;;5066268;28;20242;-76
2022/11/01 01:52:36;;;;;;;64.20;46.47;;;;;;;;;;5064714;28;20225;-75
2022/11/01 01:55:05;;;;;;;62.83;46.33;;;;;;;;;;5046613;28;20334;-75
2022/11/01 01:57:31;;;;;;;65.10;47.07;;;;;;;;;;5049831;28;20222;-75
2022/11/01 01:59:59;;;;;;;64.40;45.40;;;;;;;;;;5063573;28;20237;-75
2022/11/01 02:02:24;;;;;;;61.70;45.93;;;;;;;;;;5060925;28;20218;-74
2022/11/01 02:04:53;;;;;;;60.65;45.50;;;;;;;;;;5079353;28;20229;-74
2022/11/01 02:07:18;;;;;;;63.60;45.97;;;;;;;;;;5043795;28;20237;-75
2022/11/01 02:09:46;;;;;;;64.77;45.90;;;;;;;;;;5064303;28;20218;-75
2022/11/01 02:12:14;;;;;;;60.80;45.33;;;;;;;;;;5060289;28;20218;-75
2022/11/01 02:14:41;;;;;;;65.17;45.87;;;;;;;;;;5043700;28;20237;-75
2022/11/01 02:17:24;;;;;;;69.07;46.03;;;;;;;;;;5041991;28;20344;-75
2022/11/01 02:20:19;;;;;;;61.83;44.43;;;;;;;;;;5059318;28;20642;-75
2022/11/01 02:23:06;;;;;;;58.63;43.23;;;;;;;;;;5025881;28;20683;-75
2022/11/01 02:25:50;;;;;;;66.60;45.47;;;;;;;;;;5077212;28;20222;-74
2022/11/01 02:28:42;;;;;;;57.00;43.77;;;;;;;;;;5053073;28;20225;-75
2022/11/01 02:31:19;;;;;;;65.13;44.63;;;;;;;;;;5068448;28;20218;-75
2022/11/01 02:33:54;;;;;;;63.43;44.57;;;;;;;;;;5086502;28;20222;-75
2022/11/01 02:36:26;;;;;;;64.93;45.97;;;;;;;;;;5070127;28;20261;-75
2022/11/01 02:38:59;;;;;;;65.73;47.23;;;;;;;;;;5074788;28;20250;-75
2022/11/01 02:41:35;;;;;;;65.17;46.10;;;;;;;;;;5064421;28;20221;-75
2022/11/01 02:44:06;;;;;;;61.93;45.53;;;;;;;;;;5069168;28;20243;-75
2022/11/01 02:49:18;;;;;;;68.30;46.87;;;;;;;;;;5066916;28;20350;-74
2022/11/01 02:51:44;;;;;;;69.23;47.50;;;;;;;;;;5043982;28;20241;-74
2022/11/01 02:54:18;;;;;;;66.10;46.93;;;;;;;;;;5045580;28;20246;-75
2022/11/01 02:56:49;;;;;;;69.83;47.20;;;;;;;;;;5043460;28;20221;-75
2022/11/01 02:59:22;;;;;;;68.03;47.73;;;;;;;;;;5060157;28;20707;-74
2022/11/01 03:01:52;;;;;;;70.57;47.60;;;;;;;;;;5059621;28;20222;-74
2022/11/01 03:04:17;;;;;;;65.27;47.10;;;;;;;;;;5051636;28;20230;-75
2022/11/01 03:06:50;;;;;;;68.77;46.73;;;;;;;;;;5048973;28;20220;-75
2022/11/01 03:09:18;;;;;;;65.53;45.37;;;;;;;;;;5062302;28;20233;-75
2022/11/01 03:11:56;;;;;;;60.70;45.27;;;;;;;;;;5030970;28;20226;-75
2022/11/01 03:14:32;;;;;;;65.77;46.10;;;;;;;;;;5081505;28;20641;-75
2022/11/01 03:17:15;;;;;;;63.23;45.13;;;;;;;;;;5077785;28;20222;-76
2022/11/01 03:19:46;;;;;;;64.43;44.17;;;;;;;;;;5069537;28;21129;-75
2022/11/01 03:22:24;;;;;;;62.87;45.30;;;;;;;;;;5073075;28;20648;-74
2022/11/01 03:25:37;;;;;;;59.43;45.40;;;;;;;;;;5076694;28;20695;-75
2022/11/01 03:28:02;;;;;;;64.07;45.33;;;;;;;;;;5079028;28;20903;-75
2022/11/01 03:30:30;;;;;;;56.27;42.17;;;;;;;;;;5039431;28;20595;-75
2022/11/01 03:32:56;;;;;;;58.33;43.20;;;;;;;;;;5041884;28;20250;-75
2022/11/01 03:35:25;;;;;;;53.30;43.47;;;;;;;;;;5059684;28;20221;-75
2022/11/01 03:37:52;;;;;;;64.47;46.27;;;;;;;;;;5045832;28;20861;-74
2022/11/01 03:40:18;;;;;;;63.63;44.40;;;;;;;;;;5063232;28;20245;-76
2022/11/01 03:42:48;;;;;;;61.80;44.00;;;;;;;;;;5061532;28;20222;-75
2022/11/01 03:45:17;;;;;;;64.27;43.90;;;;;;;;;;5056482;28;20226;-75
2022/11/01 03:47:45;;;;;;;65.97;46.90;;;;;;;;;;5044348;28;20203;-75
2022/11/01 03:50:22;;;;;;;62.17;45.27;;;;;;;;;;5058707;28;20718;-75
2022/11/01 03:52:49;;;;;;;58.10;43.30;;;;;;;;;;5079038;28;20308;-75
2022/11/01 03:55:20;;;;;;;57.90;43.43;;;;;;;;;;5060391;28;20223;-75
2022/11/01 03:57:52;;;;;;;60.93;44.13;;;;;;;;;;5065426;28;20275;-75
2022/11/01 04:00:31;;;;;;;59.43;43.07;;;;;;;;;;5061677;28;20225;-75
2022/11/01 04:02:59;;;;;;;60.03;43.07;;;;;;;;;;5067958;28;20710;-75
2022/11/01 04:05:26;;;;;;;61.47;44.43;;;;;;;;;;5049696;28;20217;-75
2022/11/01 04:07:54;;;;;;;60.23;43.47;;;;;;;;;;5030339;28;20227;-75
2022/11/01 04:10:23;;;;;;;63.97;43.30;;;;;;;;;;5047998;28;20222;-77
2022/11/01 04:12:48;;;;;;;59.73;42.87;;;;;;;;;;5077615;28;20217;-75
2022/11/01 04:20:52;;;;;;;54.17;41.60;;;;;;;;;;5060255;28;20219;-75
2022/11/01 04:23:17;;;;;;;54.67;41.17;;;;;;;;;;5044084;28;20214;-74
2022/11/01 04:25:44;;;;;;;55.30;42.13;;;;;;;;;;5064325;28;20214;-74
2022/11/01 04:28:12;;;;;;;51.37;40.10;;;;;;;;;;5040252;28;20901;-75
2022/11/01 04:30:37;;;;;;;54.33;41.47;;;;;;;;;;5059821;28;20696;-75
2022/11/01 04:33:03;;;;;;;58.43;40.73;;;;;;;;;;5066306;28;20222;-76
2022/11/01 04:35:30;;;;;;;52.20;41.03;;;;;;;;;;5079699;28;20310;-75
2022/11/01 04:37:57;;;;;;;53.53;40.78;;;;;;;;;;5046087;28;20779;-75
2022/11/01 04:40:22;;;;;;;51.77;40.90;;;;;;;;;;5062827;28;20214;-75
2022/11/01 04:42:48;;;;;;;56.93;41.07;;;;;;;;;;5064737;28;20222;-75
2022/11/01 04:45:13;;;;;;;49.20;39.67;;;;;;;;;;5073998;28;20207;-75
2022/11/01 04:47:39;;;;;;;48.97;39.23;;;;;;;;;;5085064;28;20226;-75
2022/11/01 04:50:04;;;;;;;48.92;40.03;;;;;;;;;;5043276;28;20578;-75
2022/11/01 04:52:30;;;;;;;51.38;39.33;;;;;;;;;;5065520;28;20214;-75
2022/11/01 04:54:56;;;;;;;47.30;37.60;;;;;;;;;;5042872;28;20222;-75
2022/11/01 04:57:26;;;;;;;52.33;38.47;;;;;;;;;;5048824;28;20225;-75
2022/11/01 04:59:52;;;;;;;48.97;37.30;;;;;;;;;;5042274;28;20222;-75
2022/11/01 05:02:18;;;;;;;52.83;37.70;;;;;;;;;;5062829;28;20291;-75
2022/11/01 05:04:44;;;;;;;43.07;37.00;;;;;;;;;;5055040;28;20257;-75
2022/11/01 05:07:12;;;;;;;44.43;37.30;;;;;;;;;;5087454;28;20238;-75
2022/11/01 05:09:40;;;;;;;47.37;35.00;;;;;;;;;;5064974;28;20218;-75
2022/11/01 05:12:08;;;;;;;46.10;36.83;;;;;;;;;;5062604;28;20331;-75
2022/11/01 05:14:34;;;;;;;44.77;36.10;;;;;;;;;;5054203;28;20275;-75
2022/11/01 05:17:01;;;;;;;45.27;36.80;;;;;;;;;;5061124;28;20226;-75
2022/11/01 05:19:27;;;;;;;46.03;35.67;;;;;;;;;;5048911;28;20214;-74
2022/11/01 05:21:56;;;;;;;42.43;35.37;;;;;;;;;;5045054;28;20283;-75
2022/11/01 05:24:25;;;;;;;43.43;35.23;;;;;;;;;;5027718;28;20293;-75
2022/11/01 05:26:50;;;;;;;40.60;34.37;;;;;;;;;;5069890;28;20257;-76
2022/11/01 05:29:16;;;;;;;42.90;34.73;;;;;;;;;;5078455;28;20226;-76
2022/11/01 05:31:44;;;;;;;40.03;34.70;;;;;;;;;;5072651;28;20723;-75
2022/11/01 05:34:09;;;;;;;36.87;32.83;;;;;;;;;;5081334;28;20218;-76
2022/11/01 05:36:35;;;;;;;39.40;32.50;;;;;;;;;;5049973;28;20206;-76
2022/11/01 05:39:03;;;;;;;37.30;33.10;;;;;;;;;;5068052;28;20824;-75
2022/11/01 05:41:28;;;;;;;38.23;33.27;;;;;;;;;;5082004;28;20214;-75
2022/11/01 05:43:54;;;;;;;39.37;32.13;;;;;;;;;;5080606;28;20253;-75
2022/11/01 05:46:19;;;;;;;36.22;31.38;;;;;;;;;;5065800;28;20228;-75
2022/11/01 05:48:45;;;;;;;35.70;31.80;;;;;;;;;;5062762;28;20618;-75
2022/11/01 05:51:10;;;;;;;38.70;30.77;;;;;;;;;;5079453;28;20618;-75
2022/11/01 05:53:36;;;;;;;37.43;30.97;;;;;;;;;;5063629;28;20226;-76
2022/11/01 05:56:01;;;;;;;35.83;29.83;;;;;;;;;;5083211;28;20230;-73
2022/11/01 05:58:29;;;;;;;31.93;28.57;;;;;;;;;;5079818;28;20298;-74
2022/11/01 06:01:04;;;;;;;35.07;28.23;;;;;;;;;;5085713;28;20267;-74
2022/11/01 06:03:32;;;;;;;35.27;29.17;;;;;;;;;;5029040;28;20387;-75
2022/11/01 06:05:57;;;;;;;30.60;26.90;;;;;;;;;;5069036;28;20260;-74
2022/11/01 06:08:23;;;;;;;34.20;28.73;;;;;;;;;;5032870;28;20206;-73
2022/11/01 06:10:49;;;;;;;34.20;28.37;;;;;;;;;;5064985;28;20351;-76
2022/11/01 06:13:16;;;;;;;35.13;26.60;;;;;;;;;;5053698;28;20214;-75
2022/11/01 06:15:42;;;;;;;31.87;27.60;;;;;;;;;;5046164;28;20222;-73
2022/11/01 06:18:07;;;;;;;32.08;26.85;;;;;;;;;;5045043;28;20290;-72
2022/11/01 06:20:35;;;;;;;28.93;25.17;;;;;;;;;;5046388;28;20218;-72
2022/11/01 06:23:07;;;;;;;34.43;26.93;;;;;;;;;;5030132;28;20230;-73
2022/11/01 06:25:40;;;;;;;27.97;24.93;;;;;;;;;;5068498;28;20229;-72
2022/11/01 06:28:05;;;;;;;29.47;24.97;;;;;;;;;;5051629;28;20248;-72
2022/11/01 06:30:33;;;;;;;32.60;24.83;;;;;;;;;;5067186;28;20214;-73
2022/11/01 06:33:02;;;;;;;34.17;24.90;;;;;;;;;;5081820;28;20765;-72
2022/11/01 06:35:27;;;;;;;28.30;24.47;;;;;;;;;;5070071;28;21051;-73
2022/11/01 06:37:53;;;;;;;29.30;23.10;;;;;;;;;;5050731;28;20838;-73
2022/11/01 06:40:21;;;;;;;29.27;24.47;;;;;;;;;;5061532;28;20218;-75
2022/11/01 06:42:47;;;;;;;26.10;23.13;;;;;;;;;;5065116;28;20312;-73
2022/11/01 06:45:13;;;;;;;26.23;21.73;;;;;;;;;;5033121;28;20218;-76
2022/11/01 06:47:44;;;;;;;28.33;22.53;;;;;;;;;;5045531;28;20390;-73
2022/11/01 06:50:09;;;;;;;27.93;22.80;;;;;;;;;;5045665;28;20298;-74
2022/11/01 06:52:40;;;;;;;25.20;22.08;;;;;;;;;;5046656;28;20700;-75
2022/11/01 06:55:06;;;;;;;24.67;21.90;;;;;;;;;;5050637;28;20246;-74
2022/11/01 06:57:32;;;;;;;25.77;20.60;;;;;;;;;;5044164;28;20265;-74
2022/11/01 07:00:02;;;;;;;22.97;20.47;;;;;;;;;;5035522;28;20218;-73
2022/11/01 07:02:28;;;;;;;28.23;20.70;;;;;;;;;;5044313;28;20794;-73
2022/11/01 07:04:53;;;;;;;32.43;20.67;;;;;;;;;;5063973;28;20771;-73
2022/11/01 07:07:21;;;;;;;20.70;18.60;;;;;;;;;;5059926;28;20242;-74
2022/11/01 07:09:47;;;;;;;22.50;20.20;;;;;;;;;;5062913;28;20228;-73
2022/11/01 07:12:13;;;;;;;23.27;19.73;;;;;;;;;;5067885;28;20314;-73
2022/11/01 07:14:39;;;;;;;21.40;18.63;;;;;;;;;;5060450;28;20209;-73
2022/11/01 07:17:04;;;;;;;23.10;17.97;;;;;;;;;;5078629;28;20244;-74
2022/11/01 07:19:32;;;;;;;21.37;17.63;;;;;;;;;;5059337;28;20586;-73
2022/11/01 07:21:57;;;;;;;22.97;17.60;;;;;;;;;;5062274;28;20222;-74
2022/11/01 07:24:25;;;;;;;20.13;17.05;;;;;;;;;;5044373;28;20284;-75
2022/11/01 07:26:51;;;;;;;23.30;15.97;;;;;;;;;;5055783;28;20206;-74
2022/11/01 07:29:16;;;;;;;17.67;15.30;;;;;;;;;;5075340;28;20218;-72
2022/11/01 07:31:42;;;;;;;16.10;14.20;;;;;;;;;;5059989;28;20222;-72
2022/11/01 07:34:07;;;;;;;17.42;14.23;;;;;;;;;;5041732;28;20703;-73
2022/11/01 07:36:33;;;;;;;15.70;12.90;;;;;;;;;;5050735;28;20775;-75
2022/11/01 07:38:58;;;;;;;14.75;11.70;;;;;;;;;;5046466;28;20232;-73
2022/11/01 07:41:24;;;;;;;12.95;10.90;;;;;;;;;;5047126;28;20233;-72
2022/11/01 07:43:52;;;;;;;12.85;10.60;;;;;;;;;;5061666;28;20904;-73
2022/11/01 07:46:19;;;;;;;12.25;10.52;;;;;;;;;;5049357;28;20308;-74
2022/11/01 07:48:46;;;;;;;13.15;10.05;;;;;;;;;;5064687;28;20214;-73
2022/11/01 07:51:12;;;;;;;13.10;10.02;;;;;;;;;;5080351;28;20699;-74
2022/11/01 07:53:37;;;;;;;11.95;9.93;;;;;;;;;;5063942;28;20240;-75
2022/11/01 07:56:03;;;;;;;13.07;9.70;;;;;;;;;;5059803;28;20225;-72
2022/11/01 07:58:32;;;;;;;10.00;8.68;;;;;;;;;;5046096;28;20218;-75
2022/11/01 08:00:59;;;;;;;14.25;9.38;;;;;;;;;;5049001;28;20222;-73
2022/11/01 08:03:25;;;;;;;9.52;8.60;;;;;;;;;;5044342;28;20222;-74
2022/11/01 08:05:53;;;;;;;10.85;7.63;;;;;;;;;;5039411;28;20229;-73
2022/11/01 08:08:21;;;;;;;10.43;6.97;;;;;;;;;;5070639;28;20237;-72
2022/11/01 08:10:47;;;;;;;7.80;6.80;;;;;;;;;;5068987;28;20221;-72
2022/11/01 08:13:25;;;;;;;8.18;6.78;;;;;;;;;;5051798;28;20220;-73
2022/11/01 08:15:51;;;;;;;8.50;6.45;;;;;;;;;;5051227;28;20221;-74
2022/11/01 08:18:17;;;;;;;7.57;6.75;;;;;;;;;;5051893;28;20229;-73
2022/11/01 08:20:43;;;;;;;7.45;6.50;;;;;;;;;;5035388;28;20211;-73
2022/11/01 08:23:11;;;;;;;9.65;6.22;;;;;;;;;;5050492;28;20230;-74
2022/11/01 08:25:37;;;;;;;7.07;6.40;;;;;;;;;;5056851;28;20222;-73
2022/11/01 08:28:03;;;;;;;7.15;6.03;;;;;;;;;;5050089;28;20215;-75
2022/11/01 08:30:29;;;;;;;11.60;6.43;;;;;;;;;;5059572;28;20250;-73
2022/11/01 08:32:59;;;;;;;7.00;6.30;;;;;;;;;;5062832;28;20246;-73
2022/11/01 08:35:24;;;;;;;6.70;6.00;;;;;;;;;;5048836;28;20276;-73
2022/11/01 08:37:50;;;;;;;5.75;5.18;;;;;;;;;;5047312;28;20230;-74
2022/11/01 08:40:16;;;;;;;7.68;5.40;;;;;;;;;;5080979;28;20225;-73
2022/11/01 08:42:42;;;;;;;5.93;5.03;;;;;;;;;;5070845;28;20256;-73
2022/11/01 08:45:07;;;;;;;5.55;4.40;;;;;;;;;;5049415;28;20287;-74
2022/11/01 08:47:33;;;;;;;5.28;3.90;;;;;;;;;;5068184;28;20865;-73
2022/11/01 08:49:59;;;;;;;6.10;3.67;;;;;;;;;;5067692;28;20234;-74
2022/11/01 08:52:29;;;;;;;5.20;4.25;;;;;;;;;;5063257;28;20232;-72
2022/11/01 08:54:54;;;;;;;4.88;4.13;;;;;;;;;;5055918;28;20230;-73
2022/11/01 08:57:20;;;;;;;4.72;3.90;;;;;;;;;;5067752;28;20210;-72
2022/11/01 08:59:45;;;;;;;7.22;3.80;;;;;;;;;;5066907;28;20226;-75
2022/11/01 09:02:11;;;;;;;4.70;3.60;;;;;;;;;;5043396;28;20215;-73
2022/11/01 09:04:37;;;;;;;4.30;3.80;;;;;;;;;;5051184;28;20767;-73
2022/11/01 09:07:02;;;;;;;3.70;3.40;;;;;;;;;;5049242;28;20230;-73
2022/11/01 09:09:30;;;;;;;3.63;3.33;;;;;;;;;;5027669;28;20927;-75
2022/11/01 09:11:58;;;;;;;3.38;3.08;;;;;;;;;;5030908;28;20284;-72
2022/11/01 09:14:25;;;;;;;4.70;3.22;;;;;;;;;;5062755;28;20230;-73
2022/11/01 09:16:50;;;;;;;3.88;2.95;;;;;;;;;;5046266;28;20229;-73
2022/11/01 09:19:16;;;;;;;4.07;2.70;;;;;;;;;;5042620;28;20214;-73
2022/11/01 09:21:45;;;;;;;3.33;3.03;;;;;;;;;;5056069;28;20225;-72
2022/11/01 09:24:11;;;;;;;3.78;2.80;;;;;;;;;;5044174;28;20622;-74
2022/11/01 09:26:39;;;;;;;3.90;2.95;;;;;;;;;;5052052;28;20218;-73
2022/11/01 09:29:05;;;;;;;3.20;2.90;;;;;;;;;;5037211;28;20273;-73
2022/11/01 09:31:32;;;;;;;3.20;2.90;;;;;;;;;;5048775;28;20301;-74
2022/11/01 09:33:58;;;;;;;3.28;2.75;;;;;;;;;;5046455;28;20312;-74
2022/11/01 09:36:23;;;;;;;5.80;2.60;;;;;;;;;;5049283;28;20225;-74
2022/11/01 09:38:49;;;;;;;4.45;3.03;;;;;;;;;;5047783;28;20211;-74
2022/11/01 09:41:23;;;;;;;3.22;2.88;;;;;;;;;;5044539;28;20303;-73
2022/11/01 09:43:54;;;;;;;2.70;2.50;;;;;;;;;;5066276;28;20286;-73
2022/11/01 09:46:21;;;;;;;3.85;2.88;;;;;;;;;;5049856;28;20316;-74
2022/11/01 09:48:46;;;;;;;3.03;2.60;;;;;;;;;;5034187;28;20226;-73
2022/11/01 09:51:18;;;;;;;3.15;2.50;;;;;;;;;;5065730;28;20295;-74
2022/11/01 09:53:46;;;;;;;5.30;2.42;;;;;;;;;;5043544;28;20243;-73
2022/11/01 09:56:21;;;;;;;5.07;2.40;;;;;;;;;;5053486;28;20224;-75
2022/11/01 09:59:01;;;;;;;2.40;2.20;;;;;;;;;;5080046;28;20218;-74
2022/11/01 10:01:26;;;;;;;2.88;2.45;;;;;;;;;;5084579;28;20244;-75
2022/11/01 10:04:10;;;;;;;2.97;2.63;;;;;;;;;;5077122;28;20268;-74
2022/11/01 10:06:39;;;;;;;2.40;2.20;;;;;;;;;;5081896;28;20225;-74
2022/11/01 10:09:38;;;;;;;3.05;2.53;;;;;;;;;;5086914;28;20228;-74
2022/11/01 10:12:12;;;;;;;3.67;2.40;;;;;;;;;;5085058;28;20223;-73
2022/11/01 10:15:16;;;;;;;2.90;2.47;;;;;;;;;;5081416;28;20226;-74
2022/11/01 10:17:52;;;;;;;2.58;2.20;;;;;;;;;;5065723;28;20221;-74
2022/11/01 10:20:28;;;;;;;5.68;2.40;;;;;;;;;;5069893;28;20266;-74
2022/11/01 10:22:53;;;;;;;3.38;2.10;;;;;;;;;;5053446;28;20215;-74
2022/11/01 10:25:23;;;;;;;2.65;2.17;;;;;;;;;;5044722;28;20860;-75
2022/11/01 10:28:07;;;;;;;2.35;2.10;;;;;;;;;;5054421;28;20305;-76
2022/11/01 10:30:50;;;;;;;3.60;2.17;;;;;;;;;;5087288;28;20218;-73
2022/11/01 10:33:18;;;;;;;2.55;2.10;;;;;;;;;;5086465;28;20304;-74
2022/11/01 10:35:44;;;;;;;3.15;2.38;;;;;;;;;;5068346;28;20704;-73
2022/11/01 10:38:30;;;;;;;3.80;2.28;;;;;;;;;;5062046;28;20229;-75
2022/11/01 10:41:00;;;;;;;1.98;1.70;;;;;;;;;;5058367;28;20206;-74
2022/11/01 10:43:29;;;;;;;2.75;2.03;;;;;;;;;;5085126;28;20233;-74
2022/11/01 10:45:54;;;;;;;2.50;1.85;;;;;;;;;;5066000;28;20217;-76
2022/11/01 10:48:31;;;;;;;2.50;1.70;;;;;;;;;;5063498;28;20225;-76
2022/11/01 10:50:59;;;;;;;1.90;1.70;;;;;;;;;;5050535;28;20295;-74
2022/11/01 10:53:26;;;;;;;2.72;1.77;;;;;;;;;;5070116;28;20228;-75
2022/11/01 10:55:55;;;;;;;1.20;1.10;;;;;;;;;;5064599;28;20253;-74
2022/11/01 10:58:21;;;;;;;1.83;1.50;;;;;;;;;;5036575;28;20241;-75
2022/11/01 11:00:51;;;;;;;2.20;1.80;;;;;;;;;;5068718;28;20221;-74
2022/11/01 11:03:28;;;;;;;5.93;1.67;;;;;;;;;;5071332;28;20245;-75
2022/11/01 11:05:53;;;;;;;2.83;1.40;;;;;;;;;;5052605;28;20220;-74
2022/11/01 11:08:24;;;;;;;1.25;1.00;;;;;;;;;;5079812;28;20329;-75
2022/11/01 11:10:54;;;;;;;1.55;1.15;;;;;;;;;;5054207;28;20218;-75
2022/11/01 11:13:20;;;;;;;1.45;1.08;;;;;;;;;;5048453;28;20210;-75
2022/11/01 11:15:50;;;;;;;2.05;1.20;;;;;;;;;;5061834;28;20225;-75
2022/11/01 11:18:23;;;;;;;4.63;1.00;;;;;;;;;;5078699;28;20215;-73
2022/11/01 11:20:59;;;;;;;2.20;1.00;;;;;;;;;;5052344;28;20214;-74
2022/11/01 11:23:32;;;;;;;1.10;0.65;;;;;;;;;;5029046;28;20233;-74
2022/11/01 11:26:02;;;;;;;1.45;0.90;;;;;;;;;;5037352;28;20305;-77
2022/11/01 11:28:32;;;;;;;1.80;1.02;;;;;;;;;;5063045;28;20218;-75
2022/11/01 11:31:13;;;;;;;1.27;0.77;;;;;;;;;;5069659;28;20240;-75
2022/11/01 11:33:45;;;;;;;2.05;0.90;;;;;;;;;;5069744;28;20275;-75
2022/11/01 11:36:11;;;;;;;3.30;0.90;;;;;;;;;;5031968;28;20255;-75
2022/11/01 11:38:46;;;;;;;1.70;1.10;;;;;;;;;;5069327;28;20222;-75
2022/11/01 11:41:25;;;;;;;1.95;0.98;;;;;;;;;;5051659;28;20238;-75
2022/11/01 11:43:53;;;;;;;1.92;0.95;;;;;;;;;;5035381;28;20242;-75
2022/11/01 11:46:23;;;;;;;2.83;1.00;;;;;;;;;;5078982;28;20228;-75
2022/11/01 11:48:51;;;;;;;2.08;1.30;;;;;;;;;;5062495;28;20222;-76
2022/11/01 11:51:19;;;;;;;2.42;1.15;;;;;;;;;;5065689;28;20268;-75
2022/11/01 11:54:11;;;;;;;2.83;1.20;;;;;;;;;;5060935;28;20218;-74
2022/11/01 11:56:39;;;;;;;3.83;1.40;;;;;;;;;;5082892;28;20241;-75
2022/11/01 11:59:06;;;;;;;3.08;1.02;;;;;;;;;;5044724;28;20224;-74
2022/11/01 12:01:33;;;;;;;3.80;1.30;;;;;;;;;;5029321;28;20814;-76
2022/11/01 12:04:09;;;;;;;6.88;1.20;;;;;;;;;;5067246;28;20717;-75
2022/11/01 12:06:40;;;;;;;2.42;1.00;;;;;;;;;;5092338;28;20221;-75
2022/11/01 12:09:26;;;;;;;3.72;1.27;;;;;;;;;;5062099;28;20249;-76
2022/11/01 12:11:54;;;;;;;3.28;1.15;;;;;;;;;;5065457;28;20214;-75
2022/11/01 12:14:22;;;;;;;3.20;1.10;;;;;;;;;;5065068;28;20697;-75
2022/11/01 12:16:50;;;;;;;1.92;0.95;;;;;;;;;;5069304;28;20574;-77
2022/11/01 12:19:24;;;;;;;3.38;1.40;;;;;;;;;;5075736;28;20221;-75
2022/11/01 12:21:55;;;;;;;3.85;1.00;;;;;;;;;;5086785;28;20219;-75
2022/11/01 12:24:26;;;;;;;3.17;1.40;;;;;;;;;;5074504;28;20234;-76
2022/11/01 12:26:56;;;;;;;39.90;35.63;;;;;;;;;;5064071;28;20219;-77
2022/11/01 12:29:36;;;;;;;4.82;1.90;;;;;;;;;;5055192;28;20313;-77
2022/11/01 12:32:15;;;;;;;4.20;1.10;;;;;;;;;;5080089;28;20237;-75
2022/11/01 12:34:43;;;;;;;4.38;1.30;;;;;;;;;;5062791;28;20820;-75
2022/11/01 12:37:35;;;;;;;3.83;1.13;;;;;;;;;;5049935;28;20230;-75
2022/11/01 12:40:06;;;;;;;1.83;1.17;;;;;;;;;;5080292;28;20626;-77
2022/11/01 12:42:45;;;;;;;6.22;1.58;;;;;;;;;;5053782;28;20225;-75
2022/11/01 12:45:54;;;;;;;2.72;1.10;;;;;;;;;;5064773;28;20738;-74
2022/11/01 12:49:04;;;;;;;4.95;1.48;;;;;;;;;;4986826;28;20226;-75
2022/11/01 12:51:37;;;;;;;2.40;1.25;;;;;;;;;;4933496;29;20237;-75
2022/11/01 12:54:18;;;;;;;7.63;1.48;;;;;;;;;;5037408;28;20279;-75
2022/11/01 12:56:46;;;;;;;3.72;1.38;;;;;;;;;;5070035;28;20215;-75
2022/11/01 12:59:14;;;;;;;4.70;1.50;;;;;;;;;;5084157;28;20628;-75
2022/11/01 13:01:55;;;;;;;5.00;1.23;;;;;;;;;;5063956;28;20226;-75
2022/11/01 13:04:24;;;;;;;5.40;1.42;;;;;;;;;;5067928;28;20236;-75
2022/11/01 13:06:52;;;;;;;3.28;1.17;;;;;;;;;;5088476;28;20234;-74
2022/11/01 13:09:29;;;;;;;6.63;2.13;;;;;;;;;;5085439;28;20246;-74
2022/11/01 13:11:59;;;;;;;3.95;1.67;;;;;;;;;;5085896;28;20230;-78
2022/11/01 13:14:52;;;;;;;4.85;1.38;;;;;;;;;;5064271;28;20233;-76
2022/11/01 13:17:23;;;;;;;6.80;1.50;;;;;;;;;;5067338;28;20232;-76
2022/11/01 13:20:01;;;;;;;2.13;1.38;;;;;;;;;;5086799;28;20226;-75
2022/11/01 13:22:41;;;;;;;3.08;1.45;;;;;;;;;;5085802;28;20271;-77
2022/11/01 13:25:19;;;;;;;7.45;2.13;;;;;;;;;;5070849;28;20707;-74
2022/11/01 13:27:52;;;;;;;4.97;1.52;;;;;;;;;;5050725;28;20598;-77
2022/11/01 13:30:22;;;;;;;17.50;10.35;;;;;;;;;;5049774;28;20218;-75
2022/11/01 13:32:51;;;;;;;2.58;1.20;;;;;;;;;;5068768;28;20247;-75
2022/11/01 13:36:05;;;;;;;4.35;1.42;;;;;;;;;;5063813;28;20217;-76
2022/11/01 13:38:36;;;;;;;6.35;1.95;;;;;;;;;;5063633;28;20217;-74
2022/11/01 13:41:04;;;;;;;3.72;1.60;;;;;;;;;;5086291;28;20230;-75
2022/11/01 13:43:43;;;;;;;4.72;1.38;;;;;;;;;;5080836;28;20233;-74
2022/11/01 13:46:27;;;;;;;3.25;1.38;;;;;;;;;;5052925;28;20225;-75
2022/11/01 13:49:46;;;;;;;3.50;1.63;;;;;;;;;;5085270;28;20309;-75
2022/11/01 13:52:20;;;;;;;6.35;1.58;;;;;;;;;;4988975;28;20311;-74
2022/11/01 13:55:02;;;;;;;3.08;1.50;;;;;;;;;;4992115;28;20576;-75
2022/11/01 13:57:28;;;;;;;7.50;1.90;;;;;;;;;;5041229;28;20217;-75
2022/11/01 13:59:56;;;;;;;5.18;1.75;;;;;;;;;;5064049;28;20224;-74
2022/11/01 14:02:22;;;;;;;5.40;1.60;;;;;;;;;;5079041;28;20863;-75
2022/11/01 14:05:09;;;;;;;4.35;1.48;;;;;;;;;;5075768;28;20283;-74
2022/11/01 14:07:58;;;;;;;4.40;1.45;;;;;;;;;;5081392;28;20222;-73
2022/11/01 14:10:29;;;;;;;4.35;1.55;;;;;;;;;;5102571;28;20226;-75
2022/11/01 14:13:07;;;;;;;3.78;1.60;;;;;;;;;;5077551;28;20226;-74
2022/11/01 14:15:38;;;;;;;6.22;1.70;;;;;;;;;;5084325;28;20267;-76
2022/11/01 14:18:09;;;;;;;4.60;1.30;;;;;;;;;;5063020;28;20218;-75
2022/11/01 14:20:39;;;;;;;5.35;1.60;;;;;;;;;;5051068;28;20225;-75
2022/11/01 14:23:30;;;;;;;4.97;1.50;;;;;;;;;;5084755;28;20230;-74
2022/11/01 14:26:17;;;;;;;3.50;1.50;;;;;;;;;;5084627;28;20291;-74
2022/11/01 14:28:59;;;;;;;4.15;1.33;;;;;;;;;;5079511;28;20229;-74
2022/11/01 14:31:26;;;;;;;7.22;1.95;;;;;;;;;;5066252;28;20225;-74
2022/11/01 14:33:54;;;;;;;8.07;1.73;;;;;;;;;;5078723;28;20210;-74
2022/11/01 14:36:25;;;;;;;5.15;1.88;;;;;;;;;;5051469;28;20216;-74
2022/11/01 14:38:59;;;;;;;4.82;1.90;;;;;;;;;;5034212;28;20928;-74
2022/11/01 14:41:25;;;;;;;5.18;1.77;;;;;;;;;;5051818;28;20333;-73
2022/11/01 14:44:00;;;;;;;4.15;1.83;;;;;;;;;;5049270;28;20230;-73
2022/11/01 14:46:27;;;;;;;3.67;1.40;;;;;;;;;;5051676;28;20284;-74
2022/11/01 14:49:08;;;;;;;4.97;1.55;;;;;;;;;;5068607;28;20222;-73
2022/11/01 14:51:58;;;;;;;8.27;1.67;;;;;;;;;;5052585;28;20249;-73
2022/11/01 14:54:27;;;;;;;3.22;1.40;;;;;;;;;;5058199;28;20699;-75
2022/11/01 14:56:54;;;;;;;4.80;1.80;;;;;;;;;;5087552;28;20226;-73